sensor_id;sensor_type;location;lat;lon;timestamp;pressure;altitude;pressure_sealevel;temperature;humidity
54882;BME280;40775;51.448;4.742;2023-05-31T00:00:17;102475.31;;;14.27;100.00
54882;BME280;40775;51.448;4.742;2023-05-31T00:02:44;102484.13;;;14.28;100.00
54882;BME280;40775;51.448;4.742;2023-05-31T00:05:11;102481.44;;;14.26;100.00
54882;BME280;40775;51.448;4.742;2023-05-31T00:07:38;102477.69;;;14.19;100.00
54882;BME280;40775;51.448;4.742;2023-05-31T00:10:06;102475.00;;;14.18;100.00
54882;BME280;40775;51.448;4.742;2023-05-31T00:12:33;102474.06;;;14.16;100.00
54882;BME280;40775;51.448;4.742;2023-05-31T00:15:00;102466.97;;;14.15;100.00
54882;BME280;40775;51.448;4.742;2023-05-31T00:17:28;102480.00;;;14.09;100.00
54882;BME280;40775;51.448;4.742;2023-05-31T00:19:58;102471.22;;;14.10;100.00
54882;BME280;40775;51.448;4.742;2023-05-31T00:22:25;102476.50;;;14.10;100.00
54882;BME280;40775;51.448;4.742;2023-05-31T00:24:52;102481.59;;;14.04;100.00
54882;BME280;40775;51.448;4.742;2023-05-31T00:27:19;102480.69;;;14.03;100.00
54882;BME280;40775;51.448;4.742;2023-05-31T00:29:47;102485.88;;;14.00;100.00
54882;BME280;40775;51.448;4.742;2023-05-31T00:32:14;102488.16;;;13.89;100.00
54882;BME280;40775;51.448;4.742;2023-05-31T00:34:41;102488.22;;;13.91;100.00
54882;BME280;40775;51.448;4.742;2023-05-31T00:37:08;102488.16;;;13.89;100.00
54882;BME280;40775;51.448;4.742;2023-05-31T00:39:35;102478.25;;;13.82;100.00
54882;BME280;40775;51.448;4.742;2023-05-31T00:42:02;102479.19;;;13.84;100.00
54882;BME280;40775;51.448;4.742;2023-05-31T00:44:29;102485.41;;;13.86;100.00
54882;BME280;40775;51.448;4.742;2023-05-31T00:46:56;102480.94;;;13.84;100.00
54882;BME280;40775;51.448;4.742;2023-05-31T00:49:24;102479.16;;;13.83;100.00
54882;BME280;40775;51.448;4.742;2023-05-31T00:51:54;102481.53;;;13.75;100.00
54882;BME280;40775;51.448;4.742;2023-05-31T00:54:22;102483.44;;;13.79;100.00
54882;BME280;40775;51.448;4.742;2023-05-31T00:56:49;102495.59;;;13.74;100.00
54882;BME280;40775;51.448;4.742;2023-05-31T00:59:16;102486.72;;;13.72;100.00
54882;BME280;40775;51.448;4.742;2023-05-31T01:01:44;102489.97;;;13.65;100.00
54882;BME280;40775;51.448;4.742;2023-05-31T01:04:11;102486.47;;;13.66;100.00
54882;BME280;40775;51.448;4.742;2023-05-31T01:06:38;102494.44;;;13.68;100.00
54882;BME280;40775;51.448;4.742;2023-05-31T01:09:06;102496.25;;;13.69;100.00
54882;BME280;40775;51.448;4.742;2023-05-31T01:11:47;102494.41;;;13.66;100.00
54882;BME280;40775;51.448;4.742;2023-05-31T01:18:21;102496.88;;;13.61;100.00
54882;BME280;40775;51.448;4.742;2023-05-31T01:20:31;102491.56;;;13.60;100.00
54882;BME280;40775;51.448;4.742;2023-05-31T01:26:40;102488.63;;;13.51;100.00
54882;BME280;40775;51.448;4.742;2023-05-31T01:29:14;102493.94;;;13.52;100.00
54882;BME280;40775;51.448;4.742;2023-05-31T01:31:45;102501.81;;;13.51;100.00
54882;BME280;40775;51.448;4.742;2023-05-31T01:34:13;102493.78;;;13.48;100.00
54882;BME280;40775;51.448;4.742;2023-05-31T01:36:40;102499.03;;;13.46;100.00
54882;BME280;40775;51.448;4.742;2023-05-31T01:39:08;102485.94;;;13.49;100.00
54882;BME280;40775;51.448;4.742;2023-05-31T01:41:43;102492.66;;;13.41;100.00
54882;BME280;40775;51.448;4.742;2023-05-31T01:44:13;102487.28;;;13.38;100.00
54882;BME280;40775;51.448;4.742;2023-05-31T01:46:42;102489.97;;;13.40;100.00
54882;BME280;40775;51.448;4.742;2023-05-31T01:49:10;102483.75;;;13.38;100.00
54882;BME280;40775;51.448;4.742;2023-05-31T01:51:40;102487.22;;;13.37;100.00
54882;BME280;40775;51.448;4.742;2023-05-31T01:54:08;102480.25;;;13.39;100.00
54882;BME280;40775;51.448;4.742;2023-05-31T01:56:36;102479.31;;;13.37;100.00
54882;BME280;40775;51.448;4.742;2023-05-31T01:59:04;102477.63;;;13.39;100.00
54882;BME280;40775;51.448;4.742;2023-05-31T02:01:36;102479.31;;;13.37;100.00
54882;BME280;40775;51.448;4.742;2023-05-31T02:04:04;102473.78;;;13.29;100.00
54882;BME280;40775;51.448;4.742;2023-05-31T02:06:36;102469.50;;;13.33;100.00
54882;BME280;40775;51.448;4.742;2023-05-31T02:09:05;102480.84;;;13.30;100.00
54882;BME280;40775;51.448;4.742;2023-05-31T02:11:33;102478.03;;;13.25;100.00
54882;BME280;40775;51.448;4.742;2023-05-31T02:14:00;102473.66;;;13.26;100.00
54882;BME280;40775;51.448;4.742;2023-05-31T02:16:27;102479.72;;;13.23;100.00
54882;BME280;40775;51.448;4.742;2023-05-31T02:18:54;102471.66;;;13.19;100.00
54882;BME280;40775;51.448;4.742;2023-05-31T02:21:23;102470.81;;;13.20;100.00
54882;BME280;40775;51.448;4.742;2023-05-31T02:23:50;102473.19;;;13.14;100.00
54882;BME280;40775;51.448;4.742;2023-05-31T02:26:17;102468.63;;;13.10;100.00
54882;BME280;40775;51.448;4.742;2023-05-31T02:28:44;102482.06;;;13.16;100.00
54882;BME280;40775;51.448;4.742;2023-05-31T02:31:11;102473.19;;;13.14;100.00
54882;BME280;40775;51.448;4.742;2023-05-31T02:33:40;102469.47;;;13.09;100.00
54882;BME280;40775;51.448;4.742;2023-05-31T02:36:10;102487.72;;;13.03;100.00
54882;BME280;40775;51.448;4.742;2023-05-31T02:38:38;102485.16;;;13.04;100.00
54882;BME280;40775;51.448;4.742;2023-05-31T02:41:06;102479.88;;;13.04;100.00
54882;BME280;40775;51.448;4.742;2023-05-31T02:43:33;102477.97;;;13.00;100.00
54882;BME280;40775;51.448;4.742;2023-05-31T02:46:00;102478.81;;;12.99;100.00
54882;BME280;40775;51.448;4.742;2023-05-31T02:48:29;102477.06;;;12.99;100.00
54882;BME280;40775;51.448;4.742;2023-05-31T02:50:56;102488.28;;;12.94;100.00
54882;BME280;40775;51.448;4.742;2023-05-31T02:53:23;102485.66;;;12.94;100.00
54882;BME280;40775;51.448;4.742;2023-05-31T02:55:50;102482.13;;;12.93;100.00
54882;BME280;40775;51.448;4.742;2023-05-31T02:58:18;102477.59;;;12.89;100.00
54882;BME280;40775;51.448;4.742;2023-05-31T03:00:45;102473.31;;;12.93;100.00
54882;BME280;40775;51.448;4.742;2023-05-31T03:03:12;102468.63;;;12.86;100.00
54882;BME280;40775;51.448;4.742;2023-05-31T03:05:39;102483.63;;;12.87;100.00
54882;BME280;40775;51.448;4.742;2023-05-31T03:08:06;102476.53;;;12.86;100.00
54882;BME280;40775;51.448;4.742;2023-05-31T03:10:33;102471.16;;;12.83;100.00
54882;BME280;40775;51.448;4.742;2023-05-31T03:13:00;102473.81;;;12.83;100.00
54882;BME280;40775;51.448;4.742;2023-05-31T03:15:27;102476.31;;;12.80;100.00
54882;BME280;40775;51.448;4.742;2023-05-31T03:17:55;102478.06;;;12.79;100.00
54882;BME280;40775;51.448;4.742;2023-05-31T03:20:22;102484.06;;;12.75;100.00
54882;BME280;40775;51.448;4.742;2023-05-31T03:22:50;102481.59;;;12.80;100.00
54882;BME280;40775;51.448;4.742;2023-05-31T03:25:17;102471.91;;;12.79;100.00
54882;BME280;40775;51.448;4.742;2023-05-31T03:27:44;102474.69;;;12.83;100.00
54882;BME280;40775;51.448;4.742;2023-05-31T03:30:11;102476.31;;;12.80;100.00
54882;BME280;40775;51.448;4.742;2023-05-31T03:32:39;102479.19;;;12.86;100.00
54882;BME280;40775;51.448;4.742;2023-05-31T03:35:06;102474.66;;;12.82;100.00
54882;BME280;40775;51.448;4.742;2023-05-31T03:37:34;102475.03;;;12.68;100.00
54882;BME280;40775;51.448;4.742;2023-05-31T03:40:01;102474.19;;;12.69;100.00
54882;BME280;40775;51.448;4.742;2023-05-31T03:42:28;102474.09;;;12.66;100.00
54882;BME280;40775;51.448;4.742;2023-05-31T03:44:58;102472.34;;;12.67;100.00
54882;BME280;40775;51.448;4.742;2023-05-31T03:47:25;102467.03;;;12.65;100.00
54882;BME280;40775;51.448;4.742;2023-05-31T03:49:53;102468.81;;;12.66;100.00
54882;BME280;40775;51.448;4.742;2023-05-31T03:52:20;102474.25;;;12.71;100.00
54882;BME280;40775;51.448;4.742;2023-05-31T03:54:47;102476.78;;;12.68;100.00
54882;BME280;40775;51.448;4.742;2023-05-31T03:57:14;102472.41;;;12.68;100.00
54882;BME280;40775;51.448;4.742;2023-05-31T03:59:42;102471.41;;;12.65;100.00
54882;BME280;40775;51.448;4.742;2023-05-31T04:02:09;102477.56;;;12.65;100.00
54882;BME280;40775;51.448;4.742;2023-05-31T04:04:36;102474.19;;;12.69;100.00
54882;BME280;40775;51.448;4.742;2023-05-31T04:07:04;102480.19;;;12.65;100.00
54882;BME280;40775;51.448;4.742;2023-05-31T04:09:31;102485.59;;;12.68;100.00
54882;BME280;40775;51.448;4.742;2023-05-31T04:11:58;102480.97;;;12.63;100.00
54882;BME280;40775;51.448;4.742;2023-05-31T04:14:25;102487.31;;;12.68;100.00
54882;BME280;40775;51.448;4.742;2023-05-31T04:16:52;102488.28;;;12.70;100.00
54882;BME280;40775;51.448;4.742;2023-05-31T04:19:19;102477.84;;;12.73;100.00
54882;BME280;40775;51.448;4.742;2023-05-31T04:21:46;102479.69;;;12.76;100.00
54882;BME280;40775;51.448;4.742;2023-05-31T04:24:13;102486.75;;;12.77;100.00
54882;BME280;40775;51.448;4.742;2023-05-31T04:26:40;102485.06;;;12.79;100.00
54882;BME280;40775;51.448;4.742;2023-05-31T04:29:07;102481.59;;;12.80;100.00
54882;BME280;40775;51.448;4.742;2023-05-31T04:31:36;102480.81;;;12.82;100.00
54882;BME280;40775;51.448;4.742;2023-05-31T04:34:18;102482.81;;;12.88;100.00
54882;BME280;40775;51.448;4.742;2023-05-31T04:36:46;102482.06;;;12.92;100.00
54882;BME280;40775;51.448;4.742;2023-05-31T04:39:19;102482.25;;;12.96;100.00
54882;BME280;40775;51.448;4.742;2023-05-31T04:41:49;102480.59;;;13.00;100.00
54882;BME280;40775;51.448;4.742;2023-05-31T04:44:16;102486.09;;;13.06;100.00
54882;BME280;40775;51.448;4.742;2023-05-31T04:46:46;102484.56;;;13.13;100.00
54882;BME280;40775;51.448;4.742;2023-05-31T04:49:13;102480.94;;;13.09;100.00
54882;BME280;40775;51.448;4.742;2023-05-31T04:51:40;102472.41;;;13.16;100.00
54882;BME280;40775;51.448;4.742;2023-05-31T04:54:07;102481.44;;;13.21;100.00
54882;BME280;40775;51.448;4.742;2023-05-31T04:56:35;102470.19;;;13.27;100.00
54882;BME280;40775;51.448;4.742;2023-05-31T04:59:02;102475.09;;;13.42;100.00
54882;BME280;40775;51.448;4.742;2023-05-31T05:01:29;102481.94;;;13.37;100.00
54882;BME280;40775;51.448;4.742;2023-05-31T05:03:56;102479.47;;;13.41;100.00
54882;BME280;40775;51.448;4.742;2023-05-31T05:06:23;102472.63;;;13.46;100.00
54882;BME280;40775;51.448;4.742;2023-05-31T05:08:51;102483.50;;;13.55;100.00
54882;BME280;40775;51.448;4.742;2023-05-31T05:11:18;102475.97;;;13.68;100.00
54882;BME280;40775;51.448;4.742;2023-05-31T05:13:45;102487.28;;;13.64;100.00
54882;BME280;40775;51.448;4.742;2023-05-31T05:16:12;102483.28;;;13.75;100.00
54882;BME280;40775;51.448;4.742;2023-05-31T05:18:40;102480.13;;;13.86;100.00
54882;BME280;40775;51.448;4.742;2023-05-31T05:21:07;102482.78;;;13.86;100.00
54882;BME280;40775;51.448;4.742;2023-05-31T05:23:34;102486.59;;;13.96;100.00
54882;BME280;40775;51.448;4.742;2023-05-31T05:26:03;102485.09;;;14.03;100.00
54882;BME280;40775;51.448;4.742;2023-05-31T05:28:30;102483.63;;;14.12;100.00
54882;BME280;40775;51.448;4.742;2023-05-31T05:30:57;102483.75;;;14.17;100.00
54882;BME280;40775;51.448;4.742;2023-05-31T05:33:25;102493.63;;;14.22;100.00
54882;BME280;40775;51.448;4.742;2023-05-31T05:35:53;102492.28;;;14.35;100.00
54882;BME280;40775;51.448;4.742;2023-05-31T05:38:20;102493.91;;;14.30;100.00
54882;BME280;40775;51.448;4.742;2023-05-31T05:40:47;102499.44;;;14.39;100.00
54882;BME280;40775;51.448;4.742;2023-05-31T05:43:14;102489.28;;;14.51;100.00
54882;BME280;40775;51.448;4.742;2023-05-31T05:45:41;102516.44;;;15.36;100.00
54882;BME280;40775;51.448;4.742;2023-05-31T05:48:09;102512.16;;;16.82;100.00
54882;BME280;40775;51.448;4.742;2023-05-31T05:50:36;102495.31;;;17.71;100.00
54882;BME280;40775;51.448;4.742;2023-05-31T05:53:04;102490.97;;;18.32;100.00
54882;BME280;40775;51.448;4.742;2023-05-31T05:55:33;102475.53;;;18.65;100.00
54882;BME280;40775;51.448;4.742;2023-05-31T05:58:00;102471.31;;;18.84;100.00
54882;BME280;40775;51.448;4.742;2023-05-31T06:00:27;102471.44;;;18.92;100.00
54882;BME280;40775;51.448;4.742;2023-05-31T06:02:55;102464.47;;;19.04;100.00
54882;BME280;40775;51.448;4.742;2023-05-31T06:05:22;102469.00;;;19.14;100.00
54882;BME280;40775;51.448;4.742;2023-05-31T06:07:53;102469.16;;;19.25;100.00
54882;BME280;40775;51.448;4.742;2023-05-31T06:10:20;102465.63;;;19.28;100.00
54882;BME280;40775;51.448;4.742;2023-05-31T06:12:47;102469.22;;;19.31;100.00
54882;BME280;40775;51.448;4.742;2023-05-31T06:15:15;102471.06;;;19.41;100.00
54882;BME280;40775;51.448;4.742;2023-05-31T06:17:42;102473.63;;;19.31;100.00
54882;BME280;40775;51.448;4.742;2023-05-31T06:20:10;102478.09;;;19.33;100.00
54882;BME280;40775;51.448;4.742;2023-05-31T06:22:38;102477.34;;;19.45;100.00
54882;BME280;40775;51.448;4.742;2023-05-31T06:25:05;102476.50;;;19.48;100.00
54882;BME280;40775;51.448;4.742;2023-05-31T06:27:32;102481.81;;;19.48;100.00
54882;BME280;40775;51.448;4.742;2023-05-31T06:30:03;102482.69;;;19.47;100.00
54882;BME280;40775;51.448;4.742;2023-05-31T06:32:30;102489.81;;;19.48;100.00
54882;BME280;40775;51.448;4.742;2023-05-31T06:34:57;102490.63;;;19.43;100.00
54882;BME280;40775;51.448;4.742;2023-05-31T06:37:24;102484.50;;;19.51;100.00
54882;BME280;40775;51.448;4.742;2023-05-31T06:39:51;102474.75;;;19.53;100.00
54882;BME280;40775;51.448;4.742;2023-05-31T06:42:20;102476.63;;;19.60;100.00
54882;BME280;40775;51.448;4.742;2023-05-31T06:44:48;102472.19;;;19.60;100.00
54882;BME280;40775;51.448;4.742;2023-05-31T06:47:23;102470.47;;;19.67;100.00
54882;BME280;40775;51.448;4.742;2023-05-31T06:49:50;102476.72;;;19.72;100.00
54882;BME280;40775;51.448;4.742;2023-05-31T06:52:17;102473.19;;;19.73;100.00
54882;BME280;40775;51.448;4.742;2023-05-31T06:54:44;102472.34;;;19.79;100.00
54882;BME280;40775;51.448;4.742;2023-05-31T06:57:12;102475.03;;;19.79;100.00
54882;BME280;40775;51.448;4.742;2023-05-31T06:59:39;102476.84;;;19.86;100.00
54882;BME280;40775;51.448;4.742;2023-05-31T07:02:06;102477.75;;;19.88;100.00
54882;BME280;40775;51.448;4.742;2023-05-31T07:04:34;102473.31;;;19.88;100.00
54882;BME280;40775;51.448;4.742;2023-05-31T07:07:01;102475.13;;;19.92;100.00
54882;BME280;40775;51.448;4.742;2023-05-31T07:09:29;102478.69;;;19.97;100.00
54882;BME280;40775;51.448;4.742;2023-05-31T07:11:56;102468.94;;;19.99;100.00
54882;BME280;40775;51.448;4.742;2023-05-31T07:14:23;102468.94;;;19.99;100.00
54882;BME280;40775;51.448;4.742;2023-05-31T07:16:50;102468.09;;;20.00;100.00
54882;BME280;40775;51.448;4.742;2023-05-31T07:19:17;102474.34;;;20.04;100.00
54882;BME280;40775;51.448;4.742;2023-05-31T07:21:44;102468.13;;;20.06;100.00
54882;BME280;40775;51.448;4.742;2023-05-31T07:24:11;102461.03;;;20.09;100.00
54882;BME280;40775;51.448;4.742;2023-05-31T07:26:38;102464.59;;;20.12;100.00
54882;BME280;40775;51.448;4.742;2023-05-31T07:29:05;102464.63;;;20.14;100.00
54882;BME280;40775;51.448;4.742;2023-05-31T07:31:32;102455.72;;;20.13;100.00
54882;BME280;40775;51.448;4.742;2023-05-31T07:34:00;102460.19;;;20.16;100.00
54882;BME280;40775;51.448;4.742;2023-05-31T07:36:27;102461.06;;;20.18;100.00
54882;BME280;40775;51.448;4.742;2023-05-31T07:38:54;102452.19;;;20.19;100.00
54882;BME280;40775;51.448;4.742;2023-05-31T07:41:21;102451.31;;;20.18;100.00
54882;BME280;40775;51.448;4.742;2023-05-31T07:43:48;102453.06;;;20.18;100.00
54882;BME280;40775;51.448;4.742;2023-05-31T07:46:15;102439.75;;;20.22;100.00
54882;BME280;40775;51.448;4.742;2023-05-31T07:48:42;102451.31;;;20.21;100.00
54882;BME280;40775;51.448;4.742;2023-05-31T07:51:09;102452.22;;;20.23;100.00
54882;BME280;40775;51.448;4.742;2023-05-31T07:53:36;102456.66;;;20.24;100.00
54882;BME280;40775;51.448;4.742;2023-05-31T07:56:04;102445.09;;;20.24;100.00
54882;BME280;40775;51.448;4.742;2023-05-31T07:58:32;102446.91;;;20.26;100.00
54882;BME280;40775;51.448;4.742;2023-05-31T08:00:59;102446.00;;;20.26;100.00
54882;BME280;40775;51.448;4.742;2023-05-31T08:03:26;102445.13;;;20.27;100.00
54882;BME280;40775;51.448;4.742;2023-05-31T08:05:53;102438.03;;;20.27;100.00
54882;BME280;40775;51.448;4.742;2023-05-31T08:08:22;102445.16;;;20.28;100.00
54882;BME280;40775;51.448;4.742;2023-05-31T08:10:49;102439.84;;;20.30;100.00
54882;BME280;40775;51.448;4.742;2023-05-31T08:13:17;102432.72;;;20.32;100.00
54882;BME280;40775;51.448;4.742;2023-05-31T08:15:43;102440.72;;;20.32;100.00
54882;BME280;40775;51.448;4.742;2023-05-31T08:18:11;102434.50;;;20.31;100.00
54882;BME280;40775;51.448;4.742;2023-05-31T08:20:38;102432.75;;;20.35;100.00
54882;BME280;40775;51.448;4.742;2023-05-31T08:23:06;102429.19;;;20.36;100.00
54882;BME280;40775;51.448;4.742;2023-05-31T08:25:33;102434.53;;;20.36;100.00
54882;BME280;40775;51.448;4.742;2023-05-31T08:28:00;102428.31;;;20.35;100.00
54882;BME280;40775;51.448;4.742;2023-05-31T08:30:27;102430.09;;;20.36;100.00
54882;BME280;40775;51.448;4.742;2023-05-31T08:32:54;102426.53;;;20.39;100.00
54882;BME280;40775;51.448;4.742;2023-05-31T08:35:21;102427.44;;;20.40;100.00
54882;BME280;40775;51.448;4.742;2023-05-31T08:37:48;102420.34;;;20.40;100.00
54882;BME280;40775;51.448;4.742;2023-05-31T08:40:16;102423.91;;;20.42;100.00
54882;BME280;40775;51.448;4.742;2023-05-31T08:42:59;102422.13;;;20.43;100.00
54882;BME280;40775;51.448;4.742;2023-05-31T08:45:27;102421.25;;;20.41;100.00
54882;BME280;40775;51.448;4.742;2023-05-31T08:48:28;102416.81;;;20.44;100.00
54882;BME280;40775;51.448;4.742;2023-05-31T08:50:57;102407.91;;;20.42;100.00
54882;BME280;40775;51.448;4.742;2023-05-31T08:53:26;102410.59;;;20.45;100.00
54882;BME280;40775;51.448;4.742;2023-05-31T08:55:54;102413.25;;;20.45;100.00
54882;BME280;40775;51.448;4.742;2023-05-31T08:58:22;102408.81;;;20.46;100.00
54882;BME280;40775;51.448;4.742;2023-05-31T09:00:50;102407.03;;;20.46;100.00
54882;BME280;40775;51.448;4.742;2023-05-31T09:03:18;102415.91;;;20.47;100.00
54882;BME280;40775;51.448;4.742;2023-05-31T09:05:47;102405.25;;;20.47;100.00
54882;BME280;40775;51.448;4.742;2023-05-31T09:08:14;102402.59;;;20.48;100.00
54882;BME280;40775;51.448;4.742;2023-05-31T09:10:41;102408.81;;;20.49;100.00
54882;BME280;40775;51.448;4.742;2023-05-31T09:13:08;102407.03;;;20.49;100.00
54882;BME280;40775;51.448;4.742;2023-05-31T09:15:36;102400.81;;;20.49;100.00
54882;BME280;40775;51.448;4.742;2023-05-31T09:18:20;102404.38;;;20.49;100.00
54882;BME280;40775;51.448;4.742;2023-05-31T09:20:48;102395.47;;;20.50;100.00
54882;BME280;40775;51.448;4.742;2023-05-31T09:23:19;102402.59;;;20.51;100.00
54882;BME280;40775;51.448;4.742;2023-05-31T09:25:53;102393.69;;;20.51;100.00
54882;BME280;40775;51.448;4.742;2023-05-31T09:28:22;102396.38;;;20.54;100.00
54882;BME280;40775;51.448;4.742;2023-05-31T09:31:05;102389.25;;;20.53;100.00
54882;BME280;40775;51.448;4.742;2023-05-31T09:33:41;102374.13;;;20.52;100.00
54882;BME280;40775;51.448;4.742;2023-05-31T09:36:11;102376.84;;;20.55;100.00
54882;BME280;40775;51.448;4.742;2023-05-31T09:38:39;102380.38;;;20.54;100.00
54882;BME280;40775;51.448;4.742;2023-05-31T09:41:17;102380.41;;;20.57;100.00
54882;BME280;40775;51.448;4.742;2023-05-31T09:43:47;102371.50;;;20.56;100.00
54882;BME280;40775;51.448;4.742;2023-05-31T09:46:25;102375.06;;;20.55;100.00
54882;BME280;40775;51.448;4.742;2023-05-31T09:49:00;102375.06;;;20.55;100.00
54882;BME280;40775;51.448;4.742;2023-05-31T09:51:28;102376.84;;;20.58;100.00
54882;BME280;40775;51.448;4.742;2023-05-31T09:53:56;102376.88;;;20.61;100.00
54882;BME280;40775;51.448;4.742;2023-05-31T09:56:24;102375.97;;;20.62;100.00
54882;BME280;40775;51.448;4.742;2023-05-31T09:58:52;102373.31;;;20.63;100.00
54882;BME280;40775;51.448;4.742;2023-05-31T10:01:22;102367.06;;;20.61;100.00
54882;BME280;40775;51.448;4.742;2023-05-31T10:03:50;102366.19;;;20.62;100.00
54882;BME280;40775;51.448;4.742;2023-05-31T10:06:19;102362.63;;;20.60;100.00
54882;BME280;40775;51.448;4.742;2023-05-31T10:08:46;102358.19;;;20.62;100.00
54882;BME280;40775;51.448;4.742;2023-05-31T10:11:26;102355.50;;;20.61;100.00
54882;BME280;40775;51.448;4.742;2023-05-31T10:13:59;102358.19;;;20.61;100.00
54882;BME280;40775;51.448;4.742;2023-05-31T10:16:28;102347.50;;;20.62;100.00
54882;BME280;40775;51.448;4.742;2023-05-31T10:19:01;102351.97;;;20.63;100.00
54882;BME280;40775;51.448;4.742;2023-05-31T10:21:29;102348.41;;;20.64;100.00
54882;BME280;40775;51.448;4.742;2023-05-31T10:24:04;102343.94;;;20.63;100.00
54882;BME280;40775;51.448;4.742;2023-05-31T10:27:08;102339.50;;;20.64;100.00
54882;BME280;40775;51.448;4.742;2023-05-31T10:29:44;102337.72;;;20.67;100.00
54882;BME280;40775;51.448;4.742;2023-05-31T10:32:20;102336.84;;;20.68;100.00
54882;BME280;40775;51.448;4.742;2023-05-31T10:34:49;102324.38;;;20.71;100.00
54882;BME280;40775;51.448;4.742;2023-05-31T10:37:17;102335.06;;;20.71;100.00
54882;BME280;40775;51.448;4.742;2023-05-31T10:40:08;102321.72;;;20.72;100.00
54882;BME280;40775;51.448;4.742;2023-05-31T10:43:02;102323.50;;;20.70;100.00
54882;BME280;40775;51.448;4.742;2023-05-31T10:45:51;102314.59;;;20.71;100.00
54882;BME280;40775;51.448;4.742;2023-05-31T10:48:54;102320.84;;;20.75;100.00
54882;BME280;40775;51.448;4.742;2023-05-31T10:51:45;102324.38;;;20.74;100.00
54882;BME280;40775;51.448;4.742;2023-05-31T10:54:26;102320.84;;;20.72;100.00
54882;BME280;40775;51.448;4.742;2023-05-31T10:56:56;102316.38;;;20.75;100.00
54882;BME280;40775;51.448;4.742;2023-05-31T10:59:25;102316.38;;;20.77;100.00
54882;BME280;40775;51.448;4.742;2023-05-31T11:01:53;102312.81;;;20.75;100.00
54882;BME280;40775;51.448;4.742;2023-05-31T11:04:24;102325.28;;;20.76;100.00
54882;BME280;40775;51.448;4.742;2023-05-31T11:07:09;102316.38;;;20.77;100.00
54882;BME280;40775;51.448;4.742;2023-05-31T11:09:54;102310.16;;;20.78;100.00
54882;BME280;40775;51.448;4.742;2023-05-31T11:12:37;102308.38;;;20.78;100.00
54882;BME280;40775;51.448;4.742;2023-05-31T11:15:13;102313.72;;;20.80;100.00
54882;BME280;40775;51.448;4.742;2023-05-31T11:17:59;102302.16;;;20.81;100.00
54882;BME280;40775;51.448;4.742;2023-05-31T11:20:26;102309.31;;;20.83;100.00
54882;BME280;40775;51.448;4.742;2023-05-31T11:26:17;102298.63;;;20.86;100.00
54882;BME280;40775;51.448;4.742;2023-05-31T11:28:59;102296.84;;;20.85;100.00
54882;BME280;40775;51.448;4.742;2023-05-31T11:34:33;102301.28;;;20.88;100.00
54882;BME280;40775;51.448;4.742;2023-05-31T11:37:03;102291.50;;;20.87;100.00
54882;BME280;40775;51.448;4.742;2023-05-31T11:39:31;102287.94;;;20.89;100.00
54882;BME280;40775;51.448;4.742;2023-05-31T11:41:58;102289.72;;;20.90;100.00
54882;BME280;40775;51.448;4.742;2023-05-31T11:44:28;102286.16;;;20.90;100.00
54882;BME280;40775;51.448;4.742;2023-05-31T11:47:04;102285.28;;;20.92;100.00
54882;BME280;40775;51.448;4.742;2023-05-31T11:49:32;102287.06;;;20.95;100.00
54882;BME280;40775;51.448;4.742;2023-05-31T11:52:02;102285.28;;;20.94;100.00
54882;BME280;40775;51.448;4.742;2023-05-31T11:54:32;102274.59;;;20.94;100.00
54882;BME280;40775;51.448;4.742;2023-05-31T11:57:03;102278.16;;;20.96;100.00
54882;BME280;40775;51.448;4.742;2023-05-31T11:59:32;102271.91;;;20.97;100.00
54882;BME280;40775;51.448;4.742;2023-05-31T12:02:02;102267.47;;;20.99;100.00
54882;BME280;40775;51.448;4.742;2023-05-31T12:04:39;102268.34;;;21.01;100.00
54882;BME280;40775;51.448;4.742;2023-05-31T12:07:11;102264.78;;;21.01;100.00
54882;BME280;40775;51.448;4.742;2023-05-31T12:09:39;102260.34;;;20.99;100.00
54882;BME280;40775;51.448;4.742;2023-05-31T12:12:07;102246.09;;;20.97;100.00
54882;BME280;40775;51.448;4.742;2023-05-31T12:14:35;102243.44;;;21.01;100.00
54882;BME280;40775;51.448;4.742;2023-05-31T12:17:03;102247.88;;;21.05;100.00
54882;BME280;40775;51.448;4.742;2023-05-31T12:19:36;102244.31;;;21.07;100.00
54882;BME280;40775;51.448;4.742;2023-05-31T12:22:03;102245.22;;;21.05;100.00
54882;BME280;40775;51.448;4.742;2023-05-31T12:24:30;102236.31;;;21.03;100.00
54882;BME280;40775;51.448;4.742;2023-05-31T12:26:57;102238.97;;;21.01;100.00
54882;BME280;40775;51.448;4.742;2023-05-31T12:29:30;102233.63;;;21.04;100.00
54882;BME280;40775;51.448;4.742;2023-05-31T12:32:05;102225.63;;;21.04;100.00
54882;BME280;40775;51.448;4.742;2023-05-31T12:34:34;102230.06;;;21.04;100.00
54882;BME280;40775;51.448;4.742;2023-05-31T12:37:07;102230.97;;;21.06;100.00
54882;BME280;40775;51.448;4.742;2023-05-31T12:39:36;102223.84;;;21.08;100.00
54882;BME280;40775;51.448;4.742;2023-05-31T12:42:04;102219.41;;;21.11;100.00
54882;BME280;40775;51.448;4.742;2023-05-31T12:44:34;102219.41;;;21.13;100.00
54882;BME280;40775;51.448;4.742;2023-05-31T12:47:07;102216.72;;;21.16;100.00
54882;BME280;40775;51.448;4.742;2023-05-31T12:49:35;102205.16;;;21.18;100.00
54882;BME280;40775;51.448;4.742;2023-05-31T12:52:10;102209.59;;;21.15;100.00
54882;BME280;40775;51.448;4.742;2023-05-31T12:54:38;102211.41;;;21.13;100.00
54882;BME280;40775;51.448;4.742;2023-05-31T12:57:08;102209.63;;;21.10;100.00
54882;BME280;40775;51.448;4.742;2023-05-31T12:59:36;102205.16;;;21.12;100.00
54882;BME280;40775;51.448;4.742;2023-05-31T13:02:05;102198.03;;;21.14;100.00
54882;BME280;40775;51.448;4.742;2023-05-31T13:04:33;102198.91;;;21.18;100.00